sensor_id;sensor_type;location;lat;lon;timestamp;P1;durP1;ratioP1;P2;durP2;ratioP2
74995;SDS011;63545;51.690;5.202;2023-06-22T00:02:21;12.27;;;6.45;;
74995;SDS011;63545;51.690;5.202;2023-06-22T00:04:47;8.77;;;6.57;;
74995;SDS011;63545;51.690;5.202;2023-06-22T00:07:12;10.10;;;6.30;;
74995;SDS011;63545;51.690;5.202;2023-06-22T00:09:37;11.10;;;6.50;;
74995;SDS011;63545;51.690;5.202;2023-06-22T00:12:03;11.53;;;7.40;;
74995;SDS011;63545;51.690;5.202;2023-06-22T00:14:28;9.95;;;7.15;;
74995;SDS011;63545;51.690;5.202;2023-06-22T00:16:54;10.50;;;7.10;;
74995;SDS011;63545;51.690;5.202;2023-06-22T00:19:24;13.02;;;7.60;;
74995;SDS011;63545;51.690;5.202;2023-06-22T00:21:52;11.50;;;7.50;;
74995;SDS011;63545;51.690;5.202;2023-06-22T00:24:21;10.50;;;7.93;;
74995;SDS011;63545;51.690;5.202;2023-06-22T00:26:50;11.35;;;8.02;;
74995;SDS011;63545;51.690;5.202;2023-06-22T00:29:15;10.93;;;8.93;;
74995;SDS011;63545;51.690;5.202;2023-06-22T00:31:41;12.38;;;8.73;;
74995;SDS011;63545;51.690;5.202;2023-06-22T00:34:07;15.53;;;8.53;;
74995;SDS011;63545;51.690;5.202;2023-06-22T00:36:33;11.48;;;8.35;;
74995;SDS011;63545;51.690;5.202;2023-06-22T00:38:59;10.60;;;8.40;;
74995;SDS011;63545;51.690;5.202;2023-06-22T00:41:25;12.37;;;9.23;;
74995;SDS011;63545;51.690;5.202;2023-06-22T00:43:53;11.82;;;9.02;;
74995;SDS011;63545;51.690;5.202;2023-06-22T00:46:19;11.07;;;8.53;;
74995;SDS011;63545;51.690;5.202;2023-06-22T00:48:44;11.23;;;9.10;;
74995;SDS011;63545;51.690;5.202;2023-06-22T00:51:10;13.33;;;9.10;;
74995;SDS011;63545;51.690;5.202;2023-06-22T00:53:35;11.13;;;8.40;;
74995;SDS011;63545;51.690;5.202;2023-06-22T00:56:03;13.88;;;9.88;;
74995;SDS011;63545;51.690;5.202;2023-06-22T00:58:28;13.20;;;9.82;;
74995;SDS011;63545;51.690;5.202;2023-06-22T01:00:54;14.60;;;9.07;;
74995;SDS011;63545;51.690;5.202;2023-06-22T01:03:20;12.67;;;9.30;;
74995;SDS011;63545;51.690;5.202;2023-06-22T01:05:45;15.20;;;10.40;;
74995;SDS011;63545;51.690;5.202;2023-06-22T01:18:28;13.90;;;10.68;;
74995;SDS011;63545;51.690;5.202;2023-06-22T01:20:55;12.60;;;10.43;;
74995;SDS011;63545;51.690;5.202;2023-06-22T01:29:14;19.95;;;11.70;;
74995;SDS011;63545;51.690;5.202;2023-06-22T01:31:40;15.93;;;11.98;;
74995;SDS011;63545;51.690;5.202;2023-06-22T01:34:06;14.50;;;12.10;;
74995;SDS011;63545;51.690;5.202;2023-06-22T01:36:33;16.35;;;11.50;;
74995;SDS011;63545;51.690;5.202;2023-06-22T01:38:58;15.53;;;12.07;;
74995;SDS011;63545;51.690;5.202;2023-06-22T01:41:28;13.85;;;11.50;;
74995;SDS011;63545;51.690;5.202;2023-06-22T01:43:55;15.18;;;11.68;;
74995;SDS011;63545;51.690;5.202;2023-06-22T01:46:21;16.17;;;12.30;;
74995;SDS011;63545;51.690;5.202;2023-06-22T01:48:46;18.55;;;12.88;;
74995;SDS011;63545;51.690;5.202;2023-06-22T01:51:12;16.40;;;12.30;;
74995;SDS011;63545;51.690;5.202;2023-06-22T01:53:38;18.67;;;12.83;;
74995;SDS011;63545;51.690;5.202;2023-06-22T01:56:03;15.20;;;12.27;;
74995;SDS011;63545;51.690;5.202;2023-06-22T01:58:29;18.90;;;12.45;;
74995;SDS011;63545;51.690;5.202;2023-06-22T02:01:00;15.27;;;12.65;;
74995;SDS011;63545;51.690;5.202;2023-06-22T02:03:34;16.77;;;12.43;;
74995;SDS011;63545;51.690;5.202;2023-06-22T02:06:06;16.33;;;12.33;;
74995;SDS011;63545;51.690;5.202;2023-06-22T02:08:46;17.25;;;12.60;;
74995;SDS011;63545;51.690;5.202;2023-06-22T02:11:14;16.33;;;12.70;;
74995;SDS011;63545;51.690;5.202;2023-06-22T02:13:40;21.17;;;13.25;;
74995;SDS011;63545;51.690;5.202;2023-06-22T02:16:08;20.35;;;13.50;;
74995;SDS011;63545;51.690;5.202;2023-06-22T02:18:35;20.17;;;13.50;;
74995;SDS011;63545;51.690;5.202;2023-06-22T02:21:01;21.55;;;12.75;;
74995;SDS011;63545;51.690;5.202;2023-06-22T02:23:26;19.53;;;13.17;;
74995;SDS011;63545;51.690;5.202;2023-06-22T02:25:52;17.77;;;12.63;;
74995;SDS011;63545;51.690;5.202;2023-06-22T02:28:17;17.08;;;12.95;;
74995;SDS011;63545;51.690;5.202;2023-06-22T02:30:42;19.63;;;13.33;;
74995;SDS011;63545;51.690;5.202;2023-06-22T02:33:08;17.97;;;12.63;;
74995;SDS011;63545;51.690;5.202;2023-06-22T02:35:33;17.03;;;13.27;;
74995;SDS011;63545;51.690;5.202;2023-06-22T02:38:02;18.60;;;13.55;;
74995;SDS011;63545;51.690;5.202;2023-06-22T02:40:28;17.70;;;13.10;;
74995;SDS011;63545;51.690;5.202;2023-06-22T02:42:54;17.27;;;13.02;;
74995;SDS011;63545;51.690;5.202;2023-06-22T02:45:20;15.33;;;13.33;;
74995;SDS011;63545;51.690;5.202;2023-06-22T02:47:46;16.08;;;13.07;;
74995;SDS011;63545;51.690;5.202;2023-06-22T02:50:12;21.48;;;13.63;;
74995;SDS011;63545;51.690;5.202;2023-06-22T02:52:38;17.63;;;13.00;;
74995;SDS011;63545;51.690;5.202;2023-06-22T02:55:04;20.35;;;13.85;;
74995;SDS011;63545;51.690;5.202;2023-06-22T02:57:30;17.85;;;13.18;;
74995;SDS011;63545;51.690;5.202;2023-06-22T02:59:55;20.00;;;13.87;;
74995;SDS011;63545;51.690;5.202;2023-06-22T03:02:21;18.43;;;13.17;;
74995;SDS011;63545;51.690;5.202;2023-06-22T03:04:46;17.83;;;13.93;;
74995;SDS011;63545;51.690;5.202;2023-06-22T03:07:14;18.65;;;14.05;;
74995;SDS011;63545;51.690;5.202;2023-06-22T03:09:42;17.73;;;13.50;;
74995;SDS011;63545;51.690;5.202;2023-06-22T03:12:08;20.93;;;13.60;;
74995;SDS011;63545;51.690;5.202;2023-06-22T03:14:33;18.60;;;14.20;;
74995;SDS011;63545;51.690;5.202;2023-06-22T03:16:59;18.73;;;14.30;;
74995;SDS011;63545;51.690;5.202;2023-06-22T03:19:28;17.42;;;13.32;;
74995;SDS011;63545;51.690;5.202;2023-06-22T03:21:54;16.63;;;13.48;;
74995;SDS011;63545;51.690;5.202;2023-06-22T03:24:20;18.43;;;13.90;;
74995;SDS011;63545;51.690;5.202;2023-06-22T03:26:45;18.00;;;12.90;;
74995;SDS011;63545;51.690;5.202;2023-06-22T03:29:11;17.02;;;13.00;;
74995;SDS011;63545;51.690;5.202;2023-06-22T03:31:37;18.03;;;13.70;;
74995;SDS011;63545;51.690;5.202;2023-06-22T03:34:02;18.00;;;13.33;;
74995;SDS011;63545;51.690;5.202;2023-06-22T03:36:27;18.27;;;13.02;;
74995;SDS011;63545;51.690;5.202;2023-06-22T03:38:53;17.77;;;12.93;;
74995;SDS011;63545;51.690;5.202;2023-06-22T03:41:18;16.50;;;12.73;;
74995;SDS011;63545;51.690;5.202;2023-06-22T03:43:44;17.20;;;12.50;;
74995;SDS011;63545;51.690;5.202;2023-06-22T03:46:09;19.43;;;12.80;;
74995;SDS011;63545;51.690;5.202;2023-06-22T03:48:34;17.73;;;11.80;;
74995;SDS011;63545;51.690;5.202;2023-06-22T03:51:00;15.70;;;12.18;;
74995;SDS011;63545;51.690;5.202;2023-06-22T03:53:26;19.03;;;12.57;;
74995;SDS011;63545;51.690;5.202;2023-06-22T03:55:52;16.20;;;12.73;;
74995;SDS011;63545;51.690;5.202;2023-06-22T03:58:18;20.20;;;12.73;;
74995;SDS011;63545;51.690;5.202;2023-06-22T04:00:50;21.65;;;12.82;;
74995;SDS011;63545;51.690;5.202;2023-06-22T04:03:17;19.48;;;12.73;;
74995;SDS011;63545;51.690;5.202;2023-06-22T04:05:46;21.58;;;13.68;;
74995;SDS011;63545;51.690;5.202;2023-06-22T04:08:13;17.80;;;13.43;;
74995;SDS011;63545;51.690;5.202;2023-06-22T04:10:38;21.57;;;13.53;;
74995;SDS011;63545;51.690;5.202;2023-06-22T04:13:04;19.23;;;13.27;;
74995;SDS011;63545;51.690;5.202;2023-06-22T04:15:29;17.70;;;12.77;;
74995;SDS011;63545;51.690;5.202;2023-06-22T04:17:55;17.83;;;13.30;;
74995;SDS011;63545;51.690;5.202;2023-06-22T04:20:21;17.60;;;12.98;;
74995;SDS011;63545;51.690;5.202;2023-06-22T04:22:46;20.70;;;12.70;;
74995;SDS011;63545;51.690;5.202;2023-06-22T04:25:12;18.53;;;13.47;;
74995;SDS011;63545;51.690;5.202;2023-06-22T04:27:37;16.58;;;12.98;;
74995;SDS011;63545;51.690;5.202;2023-06-22T04:30:05;20.73;;;13.77;;
74995;SDS011;63545;51.690;5.202;2023-06-22T04:32:31;17.33;;;13.13;;
74995;SDS011;63545;51.690;5.202;2023-06-22T04:34:57;17.25;;;12.07;;
74995;SDS011;63545;51.690;5.202;2023-06-22T04:37:22;16.93;;;12.20;;
74995;SDS011;63545;51.690;5.202;2023-06-22T04:39:49;19.10;;;12.35;;
74995;SDS011;63545;51.690;5.202;2023-06-22T04:42:15;18.00;;;12.80;;
74995;SDS011;63545;51.690;5.202;2023-06-22T04:44:40;17.47;;;11.87;;
74995;SDS011;63545;51.690;5.202;2023-06-22T04:47:06;16.55;;;12.32;;
74995;SDS011;63545;51.690;5.202;2023-06-22T04:49:33;17.30;;;12.15;;
74995;SDS011;63545;51.690;5.202;2023-06-22T04:52:05;16.15;;;11.48;;
74995;SDS011;63545;51.690;5.202;2023-06-22T04:54:32;17.95;;;12.18;;
74995;SDS011;63545;51.690;5.202;2023-06-22T04:56:59;15.13;;;11.37;;
74995;SDS011;63545;51.690;5.202;2023-06-22T04:59:29;16.42;;;12.20;;
74995;SDS011;63545;51.690;5.202;2023-06-22T05:04:21;16.73;;;11.93;;
74995;SDS011;63545;51.690;5.202;2023-06-22T05:06:48;19.50;;;12.35;;
74995;SDS011;63545;51.690;5.202;2023-06-22T05:09:14;16.75;;;12.70;;
74995;SDS011;63545;51.690;5.202;2023-06-22T05:11:39;20.77;;;12.33;;
74995;SDS011;63545;51.690;5.202;2023-06-22T05:14:05;17.03;;;11.80;;
74995;SDS011;63545;51.690;5.202;2023-06-22T05:16:30;17.03;;;11.57;;
74995;SDS011;63545;51.690;5.202;2023-06-22T05:18:55;16.83;;;11.93;;
74995;SDS011;63545;51.690;5.202;2023-06-22T05:21:21;21.20;;;12.40;;
74995;SDS011;63545;51.690;5.202;2023-06-22T05:23:51;17.00;;;11.88;;
74995;SDS011;63545;51.690;5.202;2023-06-22T05:26:18;20.27;;;12.30;;
74995;SDS011;63545;51.690;5.202;2023-06-22T05:28:47;16.65;;;11.82;;
74995;SDS011;63545;51.690;5.202;2023-06-22T05:31:13;19.30;;;11.52;;
74995;SDS011;63545;51.690;5.202;2023-06-22T05:33:40;16.02;;;12.13;;
74995;SDS011;63545;51.690;5.202;2023-06-22T05:36:06;18.60;;;11.30;;
74995;SDS011;63545;51.690;5.202;2023-06-22T05:38:31;20.20;;;10.97;;
74995;SDS011;63545;51.690;5.202;2023-06-22T05:40:56;16.80;;;11.77;;
74995;SDS011;63545;51.690;5.202;2023-06-22T05:43:22;18.00;;;11.73;;
74995;SDS011;63545;51.690;5.202;2023-06-22T05:45:47;16.37;;;10.53;;
74995;SDS011;63545;51.690;5.202;2023-06-22T05:48:12;16.13;;;10.98;;
74995;SDS011;63545;51.690;5.202;2023-06-22T05:50:38;14.73;;;11.03;;
74995;SDS011;63545;51.690;5.202;2023-06-22T05:53:03;16.07;;;11.10;;
74995;SDS011;63545;51.690;5.202;2023-06-22T05:55:29;18.73;;;11.17;;
74995;SDS011;63545;51.690;5.202;2023-06-22T05:57:54;16.47;;;11.30;;
74995;SDS011;63545;51.690;5.202;2023-06-22T06:00:19;16.83;;;10.90;;
74995;SDS011;63545;51.690;5.202;2023-06-22T06:02:47;15.27;;;11.27;;
74995;SDS011;63545;51.690;5.202;2023-06-22T06:05:14;15.82;;;11.43;;
74995;SDS011;63545;51.690;5.202;2023-06-22T06:07:40;21.40;;;12.10;;
74995;SDS011;63545;51.690;5.202;2023-06-22T06:10:06;18.42;;;11.98;;
74995;SDS011;63545;51.690;5.202;2023-06-22T06:12:32;17.13;;;12.02;;
74995;SDS011;63545;51.690;5.202;2023-06-22T06:14:57;17.73;;;12.20;;
74995;SDS011;63545;51.690;5.202;2023-06-22T06:17:23;16.87;;;12.30;;
74995;SDS011;63545;51.690;5.202;2023-06-22T06:19:48;20.00;;;12.67;;
74995;SDS011;63545;51.690;5.202;2023-06-22T06:22:13;17.37;;;12.73;;
74995;SDS011;63545;51.690;5.202;2023-06-22T06:24:39;20.17;;;13.40;;
74995;SDS011;63545;51.690;5.202;2023-06-22T06:27:04;19.40;;;12.87;;
74995;SDS011;63545;51.690;5.202;2023-06-22T06:29:30;21.08;;;13.32;;
74995;SDS011;63545;51.690;5.202;2023-06-22T06:31:56;17.50;;;12.80;;
74995;SDS011;63545;51.690;5.202;2023-06-22T06:34:22;16.97;;;13.60;;
74995;SDS011;63545;51.690;5.202;2023-06-22T06:36:47;18.40;;;13.10;;
74995;SDS011;63545;51.690;5.202;2023-06-22T06:39:12;18.30;;;13.30;;
74995;SDS011;63545;51.690;5.202;2023-06-22T06:41:38;20.73;;;13.53;;
74995;SDS011;63545;51.690;5.202;2023-06-22T06:44:03;19.17;;;13.63;;
74995;SDS011;63545;51.690;5.202;2023-06-22T06:46:29;20.10;;;14.10;;
74995;SDS011;63545;51.690;5.202;2023-06-22T06:48:54;19.83;;;14.13;;
74995;SDS011;63545;51.690;5.202;2023-06-22T06:51:19;19.47;;;13.87;;
74995;SDS011;63545;51.690;5.202;2023-06-22T06:53:45;18.83;;;13.00;;
74995;SDS011;63545;51.690;5.202;2023-06-22T06:56:10;20.30;;;14.13;;
74995;SDS011;63545;51.690;5.202;2023-06-22T06:58:36;19.80;;;14.23;;
74995;SDS011;63545;51.690;5.202;2023-06-22T07:01:01;20.50;;;14.02;;
74995;SDS011;63545;51.690;5.202;2023-06-22T07:03:28;22.77;;;14.75;;
74995;SDS011;63545;51.690;5.202;2023-06-22T07:05:53;22.80;;;15.33;;
74995;SDS011;63545;51.690;5.202;2023-06-22T07:08:19;20.93;;;15.33;;
74995;SDS011;63545;51.690;5.202;2023-06-22T07:10:44;19.90;;;14.80;;
74995;SDS011;63545;51.690;5.202;2023-06-22T07:13:09;22.67;;;16.17;;
74995;SDS011;63545;51.690;5.202;2023-06-22T07:15:35;22.77;;;15.90;;
74995;SDS011;63545;51.690;5.202;2023-06-22T07:18:00;20.57;;;15.53;;
74995;SDS011;63545;51.690;5.202;2023-06-22T07:20:25;20.87;;;15.43;;
74995;SDS011;63545;51.690;5.202;2023-06-22T07:22:51;21.20;;;15.40;;
74995;SDS011;63545;51.690;5.202;2023-06-22T07:25:16;21.25;;;15.73;;
74995;SDS011;63545;51.690;5.202;2023-06-22T07:28:01;20.37;;;15.40;;
74995;SDS011;63545;51.690;5.202;2023-06-22T07:30:28;24.42;;;15.95;;
74995;SDS011;63545;51.690;5.202;2023-06-22T07:32:54;22.13;;;15.18;;
74995;SDS011;63545;51.690;5.202;2023-06-22T07:35:20;24.07;;;15.00;;
74995;SDS011;63545;51.690;5.202;2023-06-22T07:37:45;21.87;;;15.93;;
74995;SDS011;63545;51.690;5.202;2023-06-22T07:40:11;21.50;;;15.50;;
74995;SDS011;63545;51.690;5.202;2023-06-22T07:42:36;25.17;;;16.20;;
74995;SDS011;63545;51.690;5.202;2023-06-22T07:45:03;21.30;;;15.57;;
74995;SDS011;63545;51.690;5.202;2023-06-22T07:47:29;22.85;;;16.13;;
74995;SDS011;63545;51.690;5.202;2023-06-22T07:49:54;20.67;;;15.50;;
74995;SDS011;63545;51.690;5.202;2023-06-22T07:52:22;21.50;;;15.00;;
74995;SDS011;63545;51.690;5.202;2023-06-22T07:54:48;21.30;;;14.80;;
74995;SDS011;63545;51.690;5.202;2023-06-22T07:57:13;21.17;;;15.63;;
74995;SDS011;63545;51.690;5.202;2023-06-22T07:59:39;22.83;;;16.00;;
74995;SDS011;63545;51.690;5.202;2023-06-22T08:02:04;25.23;;;16.80;;
74995;SDS011;63545;51.690;5.202;2023-06-22T08:04:30;21.57;;;16.37;;
74995;SDS011;63545;51.690;5.202;2023-06-22T08:06:59;22.55;;;16.85;;
74995;SDS011;63545;51.690;5.202;2023-06-22T08:09:25;20.17;;;16.63;;
74995;SDS011;63545;51.690;5.202;2023-06-22T08:11:50;22.13;;;16.70;;
74995;SDS011;63545;51.690;5.202;2023-06-22T08:14:15;20.07;;;15.93;;
74995;SDS011;63545;51.690;5.202;2023-06-22T08:16:41;25.20;;;17.23;;
74995;SDS011;63545;51.690;5.202;2023-06-22T08:19:07;24.00;;;16.70;;
74995;SDS011;63545;51.690;5.202;2023-06-22T08:21:32;25.25;;;17.13;;
74995;SDS011;63545;51.690;5.202;2023-06-22T08:23:57;22.30;;;16.33;;
74995;SDS011;63545;51.690;5.202;2023-06-22T08:26:23;22.93;;;16.33;;
74995;SDS011;63545;51.690;5.202;2023-06-22T08:28:48;26.87;;;16.57;;
74995;SDS011;63545;51.690;5.202;2023-06-22T08:31:13;23.75;;;16.45;;
74995;SDS011;63545;51.690;5.202;2023-06-22T08:33:39;20.63;;;17.10;;
74995;SDS011;63545;51.690;5.202;2023-06-22T08:36:05;23.67;;;16.52;;
74995;SDS011;63545;51.690;5.202;2023-06-22T08:38:31;25.00;;;16.77;;
74995;SDS011;63545;51.690;5.202;2023-06-22T08:40:56;24.43;;;16.10;;
74995;SDS011;63545;51.690;5.202;2023-06-22T08:43:22;24.20;;;17.48;;
74995;SDS011;63545;51.690;5.202;2023-06-22T08:45:47;28.07;;;16.87;;
74995;SDS011;63545;51.690;5.202;2023-06-22T08:48:12;22.03;;;16.57;;
74995;SDS011;63545;51.690;5.202;2023-06-22T08:50:38;22.40;;;16.87;;
74995;SDS011;63545;51.690;5.202;2023-06-22T08:53:05;20.33;;;16.80;;
74995;SDS011;63545;51.690;5.202;2023-06-22T08:55:31;21.55;;;16.55;;
74995;SDS011;63545;51.690;5.202;2023-06-22T08:57:56;24.73;;;16.67;;
74995;SDS011;63545;51.690;5.202;2023-06-22T09:00:21;24.67;;;16.47;;
74995;SDS011;63545;51.690;5.202;2023-06-22T09:02:47;21.63;;;15.73;;
74995;SDS011;63545;51.690;5.202;2023-06-22T09:05:12;23.23;;;15.47;;
74995;SDS011;63545;51.690;5.202;2023-06-22T09:07:38;20.20;;;16.27;;
74995;SDS011;63545;51.690;5.202;2023-06-22T09:10:04;22.23;;;15.93;;
74995;SDS011;63545;51.690;5.202;2023-06-22T09:12:30;23.15;;;15.85;;
74995;SDS011;63545;51.690;5.202;2023-06-22T09:14:57;21.08;;;15.50;;
74995;SDS011;63545;51.690;5.202;2023-06-22T09:17:22;21.63;;;15.77;;
74995;SDS011;63545;51.690;5.202;2023-06-22T09:19:48;23.60;;;15.73;;
74995;SDS011;63545;51.690;5.202;2023-06-22T09:22:13;24.00;;;14.73;;
74995;SDS011;63545;51.690;5.202;2023-06-22T09:24:39;17.45;;;14.57;;
74995;SDS011;63545;51.690;5.202;2023-06-22T09:27:04;18.07;;;14.23;;
74995;SDS011;63545;51.690;5.202;2023-06-22T09:29:30;21.00;;;13.93;;
74995;SDS011;63545;51.690;5.202;2023-06-22T09:31:58;19.02;;;14.50;;
74995;SDS011;63545;51.690;5.202;2023-06-22T09:34:23;23.13;;;14.80;;
74995;SDS011;63545;51.690;5.202;2023-06-22T09:36:49;20.60;;;13.87;;
74995;SDS011;63545;51.690;5.202;2023-06-22T09:39:14;18.65;;;13.85;;
74995;SDS011;63545;51.690;5.202;2023-06-22T09:41:40;19.43;;;13.87;;
74995;SDS011;63545;51.690;5.202;2023-06-22T09:44:05;18.67;;;12.63;;
74995;SDS011;63545;51.690;5.202;2023-06-22T09:46:31;17.73;;;13.20;;
74995;SDS011;63545;51.690;5.202;2023-06-22T09:48:56;14.93;;;12.20;;
74995;SDS011;63545;51.690;5.202;2023-06-22T09:51:22;16.10;;;12.93;;
74995;SDS011;63545;51.690;5.202;2023-06-22T09:53:48;18.23;;;12.45;;
74995;SDS011;63545;51.690;5.202;2023-06-22T09:56:15;16.08;;;13.38;;
74995;SDS011;63545;51.690;5.202;2023-06-22T09:58:41;19.00;;;12.43;;
74995;SDS011;63545;51.690;5.202;2023-06-22T10:01:07;20.75;;;13.50;;
74995;SDS011;63545;51.690;5.202;2023-06-22T10:03:33;21.45;;;12.77;;
74995;SDS011;63545;51.690;5.202;2023-06-22T10:05:58;17.37;;;12.63;;
74995;SDS011;63545;51.690;5.202;2023-06-22T10:08:23;18.87;;;14.30;;
74995;SDS011;63545;51.690;5.202;2023-06-22T10:10:49;15.93;;;12.60;;
74995;SDS011;63545;51.690;5.202;2023-06-22T10:13:14;19.80;;;10.98;;
74995;SDS011;63545;51.690;5.202;2023-06-22T10:15:40;15.00;;;11.07;;
74995;SDS011;63545;51.690;5.202;2023-06-22T10:18:05;13.33;;;11.00;;
74995;SDS011;63545;51.690;5.202;2023-06-22T10:20:31;14.97;;;10.30;;
74995;SDS011;63545;51.690;5.202;2023-06-22T10:22:56;14.50;;;10.37;;
74995;SDS011;63545;51.690;5.202;2023-06-22T10:25:22;12.40;;;9.50;;
74995;SDS011;63545;51.690;5.202;2023-06-22T10:27:47;14.47;;;10.03;;
74995;SDS011;63545;51.690;5.202;2023-06-22T10:30:13;11.57;;;9.50;;
74995;SDS011;63545;51.690;5.202;2023-06-22T10:32:39;11.17;;;8.67;;
74995;SDS011;63545;51.690;5.202;2023-06-22T10:35:05;14.07;;;9.55;;
74995;SDS011;63545;51.690;5.202;2023-06-22T10:37:31;13.00;;;8.52;;
74995;SDS011;63545;51.690;5.202;2023-06-22T10:39:56;11.60;;;8.43;;
74995;SDS011;63545;51.690;5.202;2023-06-22T10:42:22;11.67;;;8.73;;
74995;SDS011;63545;51.690;5.202;2023-06-22T10:44:47;14.17;;;8.47;;
74995;SDS011;63545;51.690;5.202;2023-06-22T10:47:12;11.33;;;8.80;;
74995;SDS011;63545;51.690;5.202;2023-06-22T10:49:38;11.07;;;8.60;;
74995;SDS011;63545;51.690;5.202;2023-06-22T10:52:05;10.52;;;8.55;;
74995;SDS011;63545;51.690;5.202;2023-06-22T10:54:33;13.88;;;9.02;;
74995;SDS011;63545;51.690;5.202;2023-06-22T10:56:59;20.37;;;8.70;;
74995;SDS011;63545;51.690;5.202;2023-06-22T10:59:24;13.23;;;9.70;;
74995;SDS011;63545;51.690;5.202;2023-06-22T11:01:51;12.13;;;9.43;;
74995;SDS011;63545;51.690;5.202;2023-06-22T11:04:16;16.23;;;11.10;;
74995;SDS011;63545;51.690;5.202;2023-06-22T11:06:42;13.48;;;10.05;;
74995;SDS011;63545;51.690;5.202;2023-06-22T11:09:08;16.70;;;11.23;;
74995;SDS011;63545;51.690;5.202;2023-06-22T11:11:34;13.73;;;10.17;;
74995;SDS011;63545;51.690;5.202;2023-06-22T11:13:59;15.13;;;10.83;;
74995;SDS011;63545;51.690;5.202;2023-06-22T11:16:24;15.80;;;11.20;;
74995;SDS011;63545;51.690;5.202;2023-06-22T11:18:50;14.40;;;10.80;;
74995;SDS011;63545;51.690;5.202;2023-06-22T11:21:15;12.60;;;10.57;;
74995;SDS011;63545;51.690;5.202;2023-06-22T11:23:41;15.43;;;11.37;;
74995;SDS011;63545;51.690;5.202;2023-06-22T11:26:07;16.02;;;10.50;;
74995;SDS011;63545;51.690;5.202;2023-06-22T11:28:32;13.63;;;10.10;;
74995;SDS011;63545;51.690;5.202;2023-06-22T11:30:58;16.20;;;11.63;;
74995;SDS011;63545;51.690;5.202;2023-06-22T11:33:23;12.65;;;10.25;;
74995;SDS011;63545;51.690;5.202;2023-06-22T11:35:49;17.63;;;10.63;;
74995;SDS011;63545;51.690;5.202;2023-06-22T11:38:15;16.35;;;10.20;;
74995;SDS011;63545;51.690;5.202;2023-06-22T11:40:40;14.27;;;10.47;;
74995;SDS011;63545;51.690;5.202;2023-06-22T11:43:05;12.27;;;10.37;;
74995;SDS011;63545;51.690;5.202;2023-06-22T11:45:31;13.87;;;10.30;;
74995;SDS011;63545;51.690;5.202;2023-06-22T11:47:56;19.00;;;11.03;;
74995;SDS011;63545;51.690;5.202;2023-06-22T11:50:21;14.48;;;11.07;;
74995;SDS011;63545;51.690;5.202;2023-06-22T11:52:47;18.27;;;11.77;;
74995;SDS011;63545;51.690;5.202;2023-06-22T11:55:12;24.33;;;11.63;;
74995;SDS011;63545;51.690;5.202;2023-06-22T11:57:38;21.40;;;12.33;;
74995;SDS011;63545;51.690;5.202;2023-06-22T12:00:04;16.30;;;11.65;;
74995;SDS011;63545;51.690;5.202;2023-06-22T12:02:42;16.05;;;12.20;;
74995;SDS011;63545;51.690;5.202;2023-06-22T12:05:08;15.70;;;11.20;;
74995;SDS011;63545;51.690;5.202;2023-06-22T12:07:33;16.67;;;11.80;;
74995;SDS011;63545;51.690;5.202;2023-06-22T12:09:58;15.77;;;11.75;;
74995;SDS011;63545;51.690;5.202;2023-06-22T12:12:24;15.17;;;12.03;;
74995;SDS011;63545;51.690;5.202;2023-06-22T12:14:49;17.97;;;13.23;;
74995;SDS011;63545;51.690;5.202;2023-06-22T12:17:15;23.07;;;13.57;;
74995;SDS011;63545;51.690;5.202;2023-06-22T12:19:40;19.60;;;14.07;;
74995;SDS011;63545;51.690;5.202;2023-06-22T12:22:05;20.15;;;13.52;;
74995;SDS011;63545;51.690;5.202;2023-06-22T12:24:31;21.43;;;15.07;;
74995;SDS011;63545;51.690;5.202;2023-06-22T12:26:56;20.23;;;14.97;;
74995;SDS011;63545;51.690;5.202;2023-06-22T12:29:21;24.13;;;16.47;;
74995;SDS011;63545;51.690;5.202;2023-06-22T12:31:47;21.20;;;15.67;;
74995;SDS011;63545;51.690;5.202;2023-06-22T12:34:12;22.07;;;17.60;;
74995;SDS011;63545;51.690;5.202;2023-06-22T12:36:37;24.48;;;18.63;;
74995;SDS011;63545;51.690;5.202;2023-06-22T12:39:03;31.13;;;20.80;;
74995;SDS011;63545;51.690;5.202;2023-06-22T12:41:28;25.00;;;18.93;;
74995;SDS011;63545;51.690;5.202;2023-06-22T12:43:53;28.83;;;19.63;;
74995;SDS011;63545;51.690;5.202;2023-06-22T12:46:19;25.43;;;20.50;;
74995;SDS011;63545;51.690;5.202;2023-06-22T12:48:44;27.23;;;22.07;;
74995;SDS011;63545;51.690;5.202;2023-06-22T12:51:09;31.57;;;22.47;;
74995;SDS011;63545;51.690;5.202;2023-06-22T12:53:35;30.93;;;21.63;;
74995;SDS011;63545;51.690;5.202;2023-06-22T12:56:00;29.97;;;23.87;;
74995;SDS011;63545;51.690;5.202;2023-06-22T12:58:26;31.07;;;25.37;;
74995;SDS011;63545;51.690;5.202;2023-06-22T13:00:51;31.77;;;23.90;;
74995;SDS011;63545;51.690;5.202;2023-06-22T13:03:16;32.47;;;24.50;;
74995;SDS011;63545;51.690;5.202;2023-06-22T13:05:42;31.17;;;23.90;;
74995;SDS011;63545;51.690;5.202;2023-06-22T13:08:07;29.60;;;23.20;;
74995;SDS011;63545;51.690;5.202;2023-06-22T13:10:33;26.13;;;22.13;;
74995;SDS011;63545;51.690;5.202;2023-06-22T13:12:58;32.72;;;22.23;;
74995;SDS011;63545;51.690;5.202;2023-06-22T13:15:26;29.73;;;22.88;;
74995;SDS011;63545;51.690;5.202;2023-06-22T13:17:53;34.27;;;25.13;;
74995;SDS011;63545;51.690;5.202;2023-06-22T13:20:18;35.15;;;26.65;;
74995;SDS011;63545;51.690;5.202;2023-06-22T13:22:44;31.57;;;25.30;;
74995;SDS011;63545;51.690;5.202;2023-06-22T13:25:09;34.90;;;27.60;;
74995;SDS011;63545;51.690;5.202;2023-06-22T13:27:37;37.78;;;27.60;;
74995;SDS011;63545;51.690;5.202;2023-06-22T13:30:04;38.05;;;28.48;;
74995;SDS011;63545;51.690;5.202;2023-06-22T13:32:30;36.67;;;27.63;;
74995;SDS011;63545;51.690;5.202;2023-06-22T13:34:55;35.37;;;27.57;;
74995;SDS011;63545;51.690;5.202;2023-06-22T13:37:20;31.83;;;25.97;;
74995;SDS011;63545;51.690;5.202;2023-06-22T13:39:46;29.98;;;24.05;;
74995;SDS011;63545;51.690;5.202;2023-06-22T13:42:11;31.90;;;24.73;;
74995;SDS011;63545;51.690;5.202;2023-06-22T13:44:36;34.03;;;26.53;;
74995;SDS011;63545;51.690;5.202;2023-06-22T13:47:02;38.67;;;29.13;;
74995;SDS011;63545;51.690;5.202;2023-06-22T13:49:28;35.50;;;27.20;;
74995;SDS011;63545;51.690;5.202;2023-06-22T13:51:53;35.33;;;27.07;;
74995;SDS011;63545;51.690;5.202;2023-06-22T13:54:18;37.43;;;29.00;;
74995;SDS011;63545;51.690;5.202;2023-06-22T13:56:44;36.93;;;29.60;;
74995;SDS011;63545;51.690;5.202;2023-06-22T13:59:09;44.87;;;31.20;;
74995;SDS011;63545;51.690;5.202;2023-06-22T14:01:35;40.30;;;28.45;;
74995;SDS011;63545;51.690;5.202;2023-06-22T14:04:01;42.60;;;29.03;;
74995;SDS011;63545;51.690;5.202;2023-06-22T14:06:27;42.80;;;31.13;;
74995;SDS011;63545;51.690;5.202;2023-06-22T14:08:52;40.43;;;31.43;;
74995;SDS011;63545;51.690;5.202;2023-06-22T14:11:18;40.43;;;31.23;;
74995;SDS011;63545;51.690;5.202;2023-06-22T14:13:43;42.07;;;32.63;;
74995;SDS011;63545;51.690;5.202;2023-06-22T14:16:08;38.80;;;30.23;;
74995;SDS011;63545;51.690;5.202;2023-06-22T14:18:34;41.63;;;31.23;;
74995;SDS011;63545;51.690;5.202;2023-06-22T14:20:59;42.70;;;31.27;;
74995;SDS011;63545;51.690;5.202;2023-06-22T14:23:24;45.63;;;32.23;;
74995;SDS011;63545;51.690;5.202;2023-06-22T14:25:50;46.83;;;32.30;;
74995;SDS011;63545;51.690;5.202;2023-06-22T14:28:15;40.23;;;30.67;;
74995;SDS011;63545;51.690;5.202;2023-06-22T14:30:41;41.67;;;31.37;;
74995;SDS011;63545;51.690;5.202;2023-06-22T14:33:07;41.85;;;32.38;;
74995;SDS011;63545;51.690;5.202;2023-06-22T14:35:32;44.47;;;32.77;;